createdAt,value
2022-08-11T00:02:35.085Z,59.88
2022-08-11T00:05:08.443Z,59.92
2022-08-11T00:07:44.811Z,60.03
2022-08-11T00:10:15.675Z,60.02
2022-08-11T00:12:45.574Z,60.00
2022-08-11T00:15:14.582Z,60.05
2022-08-11T00:17:44.077Z,60.22
2022-08-11T00:20:17.145Z,60.20
2022-08-11T00:22:48.746Z,60.30
2022-08-11T00:25:19.646Z,60.00
2022-08-11T00:27:49.437Z,59.76
2022-08-11T00:30:18.474Z,59.66
2022-08-11T00:32:56.129Z,59.34
2022-08-11T00:35:52.011Z,59.06
2022-08-11T00:38:26.070Z,58.78
2022-08-11T00:41:02.182Z,58.98
2022-08-11T00:43:49.270Z,58.86
2022-08-11T00:46:30.303Z,58.77
2022-08-11T00:49:11.801Z,58.78
2022-08-11T00:52:12.731Z,58.95
2022-08-11T00:55:07.371Z,59.07
2022-08-11T00:58:27.632Z,59.05
2022-08-11T01:01:25.315Z,59.11
2022-08-11T01:04:12.435Z,58.66
2022-08-11T01:08:01.609Z,58.36
2022-08-11T01:10:24.414Z,58.08
2022-08-11T01:13:08.327Z,57.81
2022-08-11T01:16:10.804Z,57.47
2022-08-11T01:19:09.139Z,57.17
2022-08-11T01:22:17.274Z,56.98
2022-08-11T01:25:56.398Z,56.97
2022-08-11T01:29:04.087Z,57.09
2022-08-11T01:32:04.058Z,57.00
2022-08-11T01:35:09.015Z,56.91
2022-08-11T01:38:27.581Z,56.70
2022-08-11T01:41:50.224Z,56.55
2022-08-11T01:44:46.190Z,56.30
2022-08-11T01:47:52.542Z,56.22
2022-08-11T01:50:46.595Z,56.17
2022-08-11T01:53:28.268Z,56.09
2022-08-11T01:56:14.798Z,55.92
2022-08-11T01:58:49.281Z,55.69
2022-08-11T02:01:35.492Z,55.61
2022-08-11T02:04:18.753Z,55.54
2022-08-11T02:06:56.643Z,55.49
2022-08-11T02:09:49.496Z,55.51
2022-08-11T02:12:32.172Z,55.56
2022-08-11T02:15:09.186Z,55.59
2022-08-11T02:17:50.665Z,55.40
2022-08-11T02:20:45.889Z,55.28
2022-08-11T02:24:07.206Z,55.07
2022-08-11T02:26:41.567Z,54.81
2022-08-11T02:29:20.208Z,54.98
2022-08-11T02:32:28.687Z,54.98
2022-08-11T02:35:15.387Z,54.76
2022-08-11T02:37:53.146Z,54.67
2022-08-11T02:40:35.478Z,54.55
2022-08-11T02:43:12.860Z,54.59
2022-08-11T02:45:53.202Z,54.44
2022-08-11T02:49:08.884Z,54.48
2022-08-11T02:51:46.900Z,54.33
2022-08-11T02:54:25.164Z,54.27
2022-08-11T02:57:00.911Z,54.47
2022-08-11T02:59:52.571Z,54.65
2022-08-11T03:02:33.101Z,54.53
2022-08-11T03:05:14.545Z,54.55
2022-08-11T03:07:55.707Z,54.64
2022-08-11T03:10:30.844Z,54.63
2022-08-11T03:13:28.985Z,54.65
2022-08-11T03:16:31.250Z,54.58
2022-08-11T03:19:13.304Z,54.59
2022-08-11T03:22:01.277Z,54.60
2022-08-11T03:24:41.778Z,54.66
2022-08-11T03:27:22.003Z,54.76
2022-08-11T03:30:04.582Z,54.93
2022-08-11T03:32:39.086Z,54.98
2022-08-11T03:35:11.503Z,55.06
2022-08-11T03:37:56.574Z,55.32
2022-08-11T03:40:59.449Z,55.25
2022-08-11T03:43:58.495Z,55.43
2022-08-11T03:46:45.877Z,55.48
2022-08-11T03:49:30.908Z,55.73
2022-08-11T03:52:12.784Z,55.83
2022-08-11T03:54:55.709Z,55.74
2022-08-11T03:58:03.030Z,55.71
2022-08-11T04:00:56.028Z,55.78
2022-08-11T04:03:54.405Z,55.80
2022-08-11T04:06:49.512Z,55.53
2022-08-11T04:10:03.881Z,55.28
2022-08-11T04:13:01.043Z,55.05
2022-08-11T04:16:11.806Z,55.02
2022-08-11T04:19:28.585Z,54.92
2022-08-11T04:22:35.430Z,54.91
2022-08-11T04:25:32.403Z,54.94
2022-08-11T04:28:29.266Z,54.88
2022-08-11T04:31:11.582Z,55.00
2022-08-11T04:34:07.150Z,55.06
2022-08-11T04:37:36.377Z,55.04
2022-08-11T04:40:36.039Z,55.08
2022-08-11T04:43:57.180Z,55.18
2022-08-11T04:47:11.832Z,55.16
2022-08-11T04:50:20.431Z,55.15
2022-08-11T04:53:29.287Z,55.39
2022-08-11T04:56:28.241Z,55.63
2022-08-11T04:59:53.634Z,55.66
2022-08-11T05:02:56.597Z,55.72
2022-08-11T05:05:37.322Z,55.74
2022-08-11T05:08:51.688Z,55.69
2022-08-11T05:11:52.483Z,55.80
2022-08-11T05:14:50.933Z,55.92
2022-08-11T05:17:46.237Z,56.08
2022-08-11T05:20:32.630Z,56.34
2022-08-11T05:23:24.300Z,56.55
2022-08-11T05:26:46.632Z,56.69
2022-08-11T05:29:43.438Z,57.02
2022-08-11T05:32:32.292Z,57.40
2022-08-11T05:35:05.333Z,57.90
2022-08-11T05:37:43.000Z,58.25
2022-08-11T05:40:31.919Z,58.68
2022-08-11T05:43:20.163Z,59.08
2022-08-11T05:46:19.455Z,59.59
2022-08-11T05:49:07.177Z,59.72
2022-08-11T05:51:57.070Z,60.05
2022-08-11T05:54:46.059Z,60.26
2022-08-11T05:57:45.428Z,60.67
2022-08-11T06:00:11.849Z,61.11
2022-08-11T06:02:47.864Z,61.73
2022-08-11T06:05:19.402Z,62.32
2022-08-11T06:07:50.092Z,62.59
2022-08-11T06:10:33.366Z,63.05
2022-08-11T06:13:03.008Z,63.52
2022-08-11T06:15:34.204Z,63.82
2022-08-11T06:18:05.200Z,63.97
2022-08-11T06:20:37.650Z,64.27
2022-08-11T06:23:10.045Z,64.40
2022-08-11T06:25:39.406Z,64.65
2022-08-11T06:28:09.337Z,64.50
2022-08-11T06:30:42.633Z,64.62
2022-08-11T06:33:14.736Z,64.75
2022-08-11T06:35:53.150Z,64.80
2022-08-11T06:38:39.194Z,64.83
2022-08-11T06:41:34.470Z,65.12
2022-08-11T06:44:17.018Z,65.56
2022-08-11T06:46:50.900Z,65.59
2022-08-11T06:49:42.344Z,65.90
2022-08-11T06:52:35.713Z,66.13
2022-08-11T06:55:54.860Z,66.55
2022-08-11T06:58:15.895Z,66.90
2022-08-11T07:00:47.247Z,68.03
2022-08-11T07:03:20.392Z,68.85
2022-08-11T07:05:55.105Z,69.27
2022-08-11T07:09:21.385Z,69.60
2022-08-11T07:12:21.124Z,69.82
2022-08-11T07:15:10.964Z,71.15
2022-08-11T07:17:49.247Z,72.09
2022-08-11T07:20:36.689Z,72.56
2022-08-11T07:23:27.686Z,72.72
2022-08-11T07:26:18.412Z,73.58
2022-08-11T07:28:59.670Z,74.91
2022-08-11T07:31:35.976Z,76.89
2022-08-11T07:34:19.466Z,77.45
2022-08-11T07:36:52.456Z,81.45
2022-08-11T07:39:25.742Z,91.11
2022-08-11T07:41:58.195Z,100.00
2022-08-11T07:44:34.740Z,100.00
2022-08-11T07:47:22.398Z,100.00
2022-08-11T07:50:11.513Z,100.00
2022-08-11T07:52:41.067Z,100.00
2022-08-11T07:55:16.966Z,100.00
2022-08-11T07:58:15.849Z,100.00
2022-08-11T08:01:10.427Z,100.00
2022-08-11T08:04:03.746Z,100.00
2022-08-11T08:06:51.911Z,100.00
2022-08-11T08:09:40.621Z,100.00
2022-08-11T08:12:28.781Z,100.00
2022-08-11T08:15:16.348Z,100.00
2022-08-11T08:18:20.641Z,100.00
2022-08-11T08:20:50.295Z,100.00
2022-08-11T08:23:33.734Z,100.00
2022-08-11T08:26:05.680Z,100.00
2022-08-11T08:28:46.638Z,100.00
2022-08-11T08:31:15.799Z,100.00
2022-08-11T08:33:44.924Z,100.00
2022-08-11T08:36:15.308Z,100.00
2022-08-11T08:38:51.796Z,100.00
2022-08-11T08:41:24.920Z,100.00
2022-08-11T08:44:20.680Z,100.00
2022-08-11T08:46:51.734Z,100.00
2022-08-11T08:49:27.967Z,100.00
2022-08-11T08:52:19.327Z,100.00
2022-08-11T08:54:54.166Z,100.00
2022-08-11T08:57:24.140Z,100.00
2022-08-11T08:59:55.177Z,100.00
2022-08-11T09:02:34.315Z,100.00
2022-08-11T09:05:05.743Z,100.00
2022-08-11T09:07:39.454Z,100.00
2022-08-11T09:10:11.265Z,100.00
2022-08-11T09:12:43.419Z,100.00
2022-08-11T09:15:19.894Z,100.00
2022-08-11T09:17:51.644Z,100.00
2022-08-11T09:20:23.873Z,100.00
2022-08-11T09:26:22.052Z,100.00
2022-08-11T09:29:00.201Z,100.00
2022-08-11T09:31:37.272Z,100.00
2022-08-11T09:34:11.615Z,100.00
2022-08-11T09:36:58.574Z,100.00
2022-08-11T09:39:52.112Z,100.00
2022-08-11T09:42:24.018Z,100.00
2022-08-11T09:44:53.312Z,100.00
2022-08-11T09:47:26.004Z,100.00
2022-08-11T09:50:00.020Z,100.00
2022-08-11T09:52:33.434Z,100.00
2022-08-11T09:55:11.317Z,100.00
2022-08-11T09:57:59.459Z,100.00
2022-08-11T10:00:32.656Z,100.00
2022-08-11T10:03:06.208Z,100.00
2022-08-11T10:05:53.143Z,100.00
2022-08-11T10:08:27.974Z,100.00
2022-08-11T10:10:57.751Z,100.00
2022-08-11T10:14:31.429Z,100.00
2022-08-11T10:16:25.558Z,100.00
2022-08-11T10:18:57.054Z,100.00
2022-08-11T10:21:30.300Z,100.00
2022-08-11T10:24:18.638Z,100.00
2022-08-11T10:26:55.566Z,100.00
2022-08-11T10:29:44.482Z,100.00
2022-08-11T10:32:46.317Z,100.00
2022-08-11T10:35:30.711Z,100.00
2022-08-11T10:38:07.754Z,100.00
2022-08-11T10:40:40.778Z,100.00
2022-08-11T10:43:14.214Z,100.00
2022-08-11T10:46:29.581Z,100.00
2022-08-11T10:49:00.075Z,100.00
2022-08-11T10:51:52.182Z,100.00
2022-08-11T10:54:41.848Z,100.00
2022-08-11T10:57:29.409Z,100.00
2022-08-11T10:59:59.320Z,100.00
2022-08-11T11:02:29.313Z,100.00
2022-08-11T11:05:09.446Z,100.00
2022-08-11T11:07:44.739Z,100.00
2022-08-11T11:10:13.610Z,100.00
2022-08-11T11:13:04.495Z,100.00
2022-08-11T11:15:53.766Z,100.00
2022-08-11T11:18:25.115Z,100.00
2022-08-11T11:20:58.491Z,100.00
2022-08-11T11:23:35.222Z,100.00
2022-08-11T11:26:27.474Z,99.88
2022-08-11T11:29:40.698Z,99.99
2022-08-11T11:32:32.103Z,97.87
2022-08-11T11:35:26.716Z,91.81
2022-08-11T11:38:04.330Z,96.94
2022-08-11T11:40:37.401Z,93.53
2022-08-11T11:43:07.013Z,89.05
2022-08-11T11:45:38.019Z,93.42
2022-08-11T11:48:07.580Z,92.21
2022-08-11T11:50:39.054Z,94.43
2022-08-11T11:53:11.123Z,97.41
2022-08-11T11:55:43.003Z,90.21
2022-08-11T11:58:29.226Z,86.62
2022-08-11T12:01:20.103Z,84.54
2022-08-11T12:03:51.698Z,88.90
2022-08-11T12:06:23.106Z,91.73
2022-08-11T12:08:54.738Z,79.50
2022-08-11T12:11:45.485Z,85.76
2022-08-11T12:14:18.391Z,80.72
2022-08-11T12:16:48.855Z,86.98
2022-08-11T12:19:21.432Z,83.68
2022-08-11T12:22:07.784Z,89.23
2022-08-11T12:24:55.550Z,81.89
2022-08-11T12:27:27.888Z,91.68
2022-08-11T12:30:00.633Z,84.79
2022-08-11T12:32:32.288Z,93.74
2022-08-11T12:35:01.658Z,89.14
2022-08-11T12:37:33.880Z,92.20
2022-08-11T12:40:43.552Z,94.14
2022-08-11T12:43:37.901Z,85.36
2022-08-11T12:46:10.482Z,82.99
2022-08-11T12:49:03.099Z,79.15
2022-08-11T12:52:12.925Z,80.09
2022-08-11T12:54:51.772Z,82.00
2022-08-11T12:57:49.818Z,87.68
2022-08-11T13:00:38.793Z,86.95
2022-08-11T13:03:27.291Z,84.24
2022-08-11T13:05:58.464Z,87.45
2022-08-11T13:08:29.565Z,84.76
2022-08-11T13:11:18.489Z,84.40
2022-08-11T13:13:53.917Z,84.78
2022-08-11T13:16:30.441Z,89.76
2022-08-11T13:19:01.592Z,86.06
2022-08-11T13:21:31.581Z,83.28
2022-08-11T13:24:03.527Z,90.25
2022-08-11T13:26:46.926Z,87.10
2022-08-11T13:29:22.188Z,79.42
2022-08-11T13:31:53.779Z,90.84
2022-08-11T13:34:24.292Z,80.53
2022-08-11T13:36:55.467Z,81.61
2022-08-11T13:39:26.889Z,77.04
2022-08-11T13:41:57.760Z,77.06
2022-08-11T13:44:29.788Z,79.34
2022-08-11T13:47:04.225Z,85.72
2022-08-11T13:49:39.525Z,77.32
2022-08-11T13:52:13.926Z,80.74
2022-08-11T13:54:43.739Z,83.04
2022-08-11T13:58:08.649Z,82.16
2022-08-11T14:00:13.147Z,73.59
2022-08-11T14:02:56.764Z,72.75
2022-08-11T14:05:29.351Z,74.84
2022-08-11T14:08:02.916Z,77.36
2022-08-11T14:10:34.249Z,78.77
2022-08-11T14:13:25.703Z,73.10
2022-08-11T14:15:57.371Z,79.90
2022-08-11T14:18:29.937Z,77.63
2022-08-11T14:21:26.783Z,79.20
2022-08-11T14:23:59.331Z,76.25
2022-08-11T14:26:36.650Z,73.32
2022-08-11T14:29:08.464Z,79.68
2022-08-11T14:31:40.335Z,74.59
2022-08-11T14:34:12.606Z,69.66
2022-08-11T14:36:43.276Z,74.61
2022-08-11T14:39:17.238Z,75.29
2022-08-11T14:42:11.593Z,79.18
2022-08-11T14:45:04.296Z,72.75
2022-08-11T14:47:36.070Z,76.11
2022-08-11T14:50:11.701Z,75.68
2022-08-11T14:52:51.372Z,75.44
2022-08-11T14:55:39.122Z,77.00
2022-08-11T14:58:10.817Z,75.33
2022-08-11T15:00:40.574Z,75.28
2022-08-11T15:03:11.733Z,74.14
2022-08-11T15:05:56.545Z,75.59
2022-08-11T15:08:47.923Z,78.16
2022-08-11T15:11:36.667Z,77.55
2022-08-11T15:14:07.897Z,72.26
2022-08-11T15:16:56.126Z,77.92
2022-08-11T15:19:40.106Z,76.28
2022-08-11T15:22:29.435Z,76.47
2022-08-11T15:25:00.007Z,76.34
2022-08-11T15:27:48.860Z,77.83
2022-08-11T15:30:35.506Z,75.47
2022-08-11T15:33:26.740Z,73.51
2022-08-11T15:36:15.305Z,75.85
2022-08-11T15:38:59.479Z,77.57
2022-08-11T15:41:56.444Z,83.66
2022-08-11T15:45:08.578Z,77.76
2022-08-11T15:47:42.283Z,74.81
2022-08-11T15:50:15.984Z,74.63
2022-08-11T15:52:50.847Z,73.65
2022-08-11T15:55:23.493Z,78.82
2022-08-11T15:58:12.693Z,68.73
2022-08-11T16:01:04.425Z,72.32
2022-08-11T16:04:08.207Z,73.63
2022-08-11T16:06:47.568Z,70.68
2022-08-11T16:09:24.829Z,74.42
2022-08-11T16:12:00.681Z,75.11
2022-08-11T16:14:49.758Z,79.37
2022-08-11T16:17:20.645Z,76.76
2022-08-11T16:19:52.808Z,73.71
2022-08-11T16:22:34.528Z,73.45
2022-08-11T16:27:01.641Z,80.05
2022-08-11T16:27:59.672Z,76.14
2022-08-11T16:30:31.876Z,74.33
2022-08-11T16:33:47.973Z,77.96
2022-08-11T16:36:13.378Z,80.14
2022-08-11T16:38:44.089Z,78.01
2022-08-11T16:41:15.522Z,80.49
2022-08-11T16:44:13.751Z,80.72
2022-08-11T16:47:00.600Z,81.35
2022-08-11T16:49:34.894Z,85.66
2022-08-11T16:52:05.598Z,89.38
2022-08-11T16:54:35.351Z,85.32
2022-08-11T16:57:20.657Z,85.19
2022-08-11T16:59:57.439Z,88.63
2022-08-11T17:02:51.680Z,89.58
2022-08-11T17:05:54.636Z,89.30
2022-08-11T17:08:57.082Z,93.46
2022-08-11T17:11:46.582Z,88.51
2022-08-11T17:14:35.537Z,94.45
2022-08-11T17:17:12.440Z,97.31
2022-08-11T17:20:39.742Z,93.43
2022-08-11T17:22:53.912Z,95.37
2022-08-11T17:25:25.401Z,90.29
2022-08-11T17:27:56.671Z,95.28
2022-08-11T17:30:48.093Z,96.30
2022-08-11T17:33:37.175Z,97.71
2022-08-11T17:36:07.164Z,98.25
2022-08-11T17:38:37.879Z,100.00
2022-08-11T17:41:25.831Z,99.24
2022-08-11T17:44:14.746Z,100.00
2022-08-11T17:47:05.904Z,100.00
2022-08-11T17:49:38.027Z,100.00
2022-08-11T17:52:26.330Z,100.00
2022-08-11T17:55:14.016Z,100.00
2022-08-11T17:58:01.419Z,100.00
2022-08-11T18:00:31.887Z,100.00
2022-08-11T18:03:20.193Z,100.00
2022-08-11T18:05:50.919Z,100.00
2022-08-11T18:08:39.718Z,100.00
2022-08-11T18:12:10.096Z,100.00
2022-08-11T18:14:34.768Z,100.00
2022-08-11T18:17:21.182Z,100.00
2022-08-11T18:20:07.647Z,100.00
2022-08-11T18:22:59.474Z,100.00
2022-08-11T18:25:49.488Z,100.00
2022-08-11T18:28:40.724Z,100.00
2022-08-11T18:31:29.088Z,100.00
2022-08-11T18:34:19.088Z,100.00
2022-08-11T18:37:10.024Z,100.00
2022-08-11T18:40:19.357Z,100.00
2022-08-11T18:43:08.065Z,100.00
2022-08-11T18:46:06.226Z,100.00
2022-08-11T18:48:56.936Z,100.00
2022-08-11T18:51:44.785Z,100.00
2022-08-11T18:54:32.864Z,100.00
2022-08-11T18:57:25.599Z,100.00
2022-08-11T19:00:13.406Z,100.00
2022-08-11T19:03:01.077Z,100.00
2022-08-11T19:06:36.936Z,100.00
2022-08-11T19:09:01.698Z,100.00
2022-08-11T19:11:49.764Z,100.00
2022-08-11T19:14:39.920Z,100.00
2022-08-11T19:17:43.878Z,100.00
2022-08-11T19:20:34.646Z,100.00
2022-08-11T19:23:21.995Z,100.00
2022-08-11T19:26:08.659Z,100.00
2022-08-11T19:28:57.743Z,100.00
2022-08-11T19:31:45.819Z,100.00
2022-08-11T19:34:35.002Z,100.00
2022-08-11T19:37:25.074Z,100.00
2022-08-11T19:40:12.858Z,100.00
2022-08-11T19:43:01.686Z,100.00
2022-08-11T19:45:52.654Z,100.00
2022-08-11T19:48:42.443Z,100.00
2022-08-11T19:51:30.609Z,100.00
2022-08-11T19:54:17.946Z,100.00
2022-08-11T19:57:06.253Z,100.00
2022-08-11T19:59:53.404Z,100.00
2022-08-11T20:02:39.680Z,100.00
2022-08-11T20:05:28.098Z,100.00
2022-08-11T20:08:16.776Z,100.00
2022-08-11T20:11:07.125Z,100.00
2022-08-11T20:13:55.917Z,100.00
2022-08-11T20:16:44.267Z,100.00
2022-08-11T20:19:56.443Z,100.00
2022-08-11T20:22:38.649Z,100.00
2022-08-11T20:25:26.619Z,100.00
2022-08-11T20:28:14.678Z,100.00
2022-08-11T20:31:04.059Z,100.00
2022-08-11T20:33:51.454Z,100.00
2022-08-11T20:36:37.785Z,100.00
2022-08-11T20:39:26.397Z,100.00
2022-08-11T20:42:13.670Z,100.00
2022-08-11T20:45:01.147Z,100.00
2022-08-11T20:47:56.461Z,100.00
2022-08-11T20:50:47.773Z,100.00
2022-08-11T20:53:39.212Z,100.00
2022-08-11T20:56:30.217Z,100.00
2022-08-11T20:59:18.887Z,100.00
2022-08-11T21:02:10.595Z,100.00
2022-08-11T21:05:00.273Z,100.00
2022-08-11T21:07:55.540Z,100.00
2022-08-11T21:10:50.614Z,100.00
2022-08-11T21:13:43.592Z,100.00
2022-08-11T21:16:35.923Z,100.00
2022-08-11T21:20:00.452Z,100.00
2022-08-11T21:22:58.940Z,100.00
2022-08-11T21:25:49.205Z,100.00
2022-08-11T21:28:38.736Z,100.00
2022-08-11T21:31:27.758Z,100.00
2022-08-11T21:34:14.719Z,100.00
2022-08-11T21:37:04.382Z,100.00
2022-08-11T21:39:53.363Z,100.00
2022-08-11T21:42:40.856Z,100.00
2022-08-11T21:45:29.331Z,100.00
2022-08-11T21:48:19.979Z,100.00
2022-08-11T21:51:06.598Z,100.00
2022-08-11T21:53:54.014Z,100.00
2022-08-11T21:56:42.049Z,100.00
2022-08-11T21:59:30.266Z,100.00
2022-08-11T22:02:17.993Z,100.00
2022-08-11T22:05:06.034Z,100.00
2022-08-11T22:07:52.129Z,100.00
2022-08-11T22:10:42.011Z,100.00
2022-08-11T22:13:30.434Z,100.00
2022-08-11T22:16:17.235Z,100.00
2022-08-11T22:19:04.661Z,100.00
2022-08-11T22:22:02.343Z,100.00
2022-08-11T22:24:52.021Z,100.00
2022-08-11T22:27:39.788Z,100.00
2022-08-11T22:30:28.374Z,100.00
2022-08-11T22:33:16.516Z,100.00
2022-08-11T22:36:04.106Z,100.00
2022-08-11T22:38:53.234Z,100.00
2022-08-11T22:41:40.555Z,100.00
2022-08-11T22:44:27.153Z,100.00
2022-08-11T22:47:18.431Z,100.00
2022-08-11T22:50:09.859Z,100.00
2022-08-11T22:52:57.128Z,100.00
2022-08-11T22:55:45.566Z,100.00
2022-08-11T22:58:33.944Z,100.00
2022-08-11T23:01:20.564Z,100.00
2022-08-11T23:04:06.986Z,100.00
2022-08-11T23:06:54.632Z,100.00
2022-08-11T23:09:42.526Z,100.00
2022-08-11T23:12:31.246Z,100.00
2022-08-11T23:15:18.154Z,100.00
2022-08-11T23:18:05.326Z,100.00
2022-08-11T23:20:55.782Z,100.00
2022-08-11T23:23:44.963Z,100.00
2022-08-11T23:26:32.067Z,100.00
2022-08-11T23:29:20.850Z,100.00
2022-08-11T23:32:10.378Z,100.00
2022-08-11T23:35:37.088Z,100.00
2022-08-11T23:38:06.819Z,100.00
2022-08-11T23:40:53.049Z,100.00
2022-08-11T23:43:41.043Z,100.00
2022-08-11T23:46:28.979Z,100.00
2022-08-11T23:49:20.427Z,100.00
2022-08-11T23:52:08.234Z,100.00
2022-08-11T23:54:55.523Z,100.00
2022-08-11T23:57:47.669Z,100.00
